sensor_id;sensor_type;location;lat;lon;timestamp;P1;durP1;ratioP1;P2;durP2;ratioP2
52186;SDS011;38161;53.020;6.598;2023-02-15T00:00:15;18.87;;;12.17;;
52186;SDS011;38161;53.020;6.598;2023-02-15T00:02:41;32.25;;;12.60;;
52186;SDS011;38161;53.020;6.598;2023-02-15T00:05:07;60.47;;;12.90;;
52186;SDS011;38161;53.020;6.598;2023-02-15T00:07:33;34.60;;;12.23;;
52186;SDS011;38161;53.020;6.598;2023-02-15T00:09:59;20.63;;;12.40;;
52186;SDS011;38161;53.020;6.598;2023-02-15T00:12:24;23.43;;;12.27;;
52186;SDS011;38161;53.020;6.598;2023-02-15T00:14:50;219.87;;;20.60;;
52186;SDS011;38161;53.020;6.598;2023-02-15T00:17:16;236.17;;;18.57;;
52186;SDS011;38161;53.020;6.598;2023-02-15T00:19:41;88.07;;;15.50;;
52186;SDS011;38161;53.020;6.598;2023-02-15T00:22:07;111.53;;;17.60;;
52186;SDS011;38161;53.020;6.598;2023-02-15T00:24:33;176.60;;;19.08;;
52186;SDS011;38161;53.020;6.598;2023-02-15T00:26:59;117.67;;;19.20;;
52186;SDS011;38161;53.020;6.598;2023-02-15T00:29:25;120.20;;;20.20;;
52186;SDS011;38161;53.020;6.598;2023-02-15T00:31:51;169.23;;;23.17;;
52186;SDS011;38161;53.020;6.598;2023-02-15T00:34:21;119.88;;;20.17;;
52186;SDS011;38161;53.020;6.598;2023-02-15T00:36:48;113.03;;;20.20;;
52186;SDS011;38161;53.020;6.598;2023-02-15T00:39:15;45.05;;;19.60;;
52186;SDS011;38161;53.020;6.598;2023-02-15T00:41:41;59.30;;;18.53;;
52186;SDS011;38161;53.020;6.598;2023-02-15T00:44:07;102.47;;;21.13;;
52186;SDS011;38161;53.020;6.598;2023-02-15T00:46:33;93.67;;;20.73;;
52186;SDS011;38161;53.020;6.598;2023-02-15T00:48:59;33.35;;;18.02;;
52186;SDS011;38161;53.020;6.598;2023-02-15T00:51:25;31.23;;;18.95;;
52186;SDS011;38161;53.020;6.598;2023-02-15T00:53:51;30.33;;;18.80;;
52186;SDS011;38161;53.020;6.598;2023-02-15T00:56:17;27.27;;;18.63;;
52186;SDS011;38161;53.020;6.598;2023-02-15T00:58:42;31.77;;;18.97;;
52186;SDS011;38161;53.020;6.598;2023-02-15T01:01:15;26.52;;;17.85;;
52186;SDS011;38161;53.020;6.598;2023-02-15T01:03:43;27.30;;;18.87;;
52186;SDS011;38161;53.020;6.598;2023-02-15T01:06:09;27.92;;;17.80;;
52186;SDS011;38161;53.020;6.598;2023-02-15T01:11:09;25.67;;;18.47;;
52186;SDS011;38161;53.020;6.598;2023-02-15T01:13:56;25.10;;;16.97;;
52186;SDS011;38161;53.020;6.598;2023-02-15T01:16:24;24.23;;;16.43;;
52186;SDS011;38161;53.020;6.598;2023-02-15T01:18:51;23.97;;;16.20;;
52186;SDS011;38161;53.020;6.598;2023-02-15T01:21:18;23.95;;;16.65;;
52186;SDS011;38161;53.020;6.598;2023-02-15T01:23:45;24.47;;;16.60;;
52186;SDS011;38161;53.020;6.598;2023-02-15T01:26:12;25.35;;;16.10;;
52186;SDS011;38161;53.020;6.598;2023-02-15T01:31:07;24.03;;;14.87;;
52186;SDS011;38161;53.020;6.598;2023-02-15T01:33:35;22.70;;;15.17;;
52186;SDS011;38161;53.020;6.598;2023-02-15T01:38:26;20.83;;;14.57;;
52186;SDS011;38161;53.020;6.598;2023-02-15T01:40:53;23.33;;;14.57;;
52186;SDS011;38161;53.020;6.598;2023-02-15T01:43:42;19.93;;;13.90;;
52186;SDS011;38161;53.020;6.598;2023-02-15T01:46:10;21.77;;;14.47;;
52186;SDS011;38161;53.020;6.598;2023-02-15T01:48:40;23.77;;;14.93;;
52186;SDS011;38161;53.020;6.598;2023-02-15T01:51:11;22.53;;;14.87;;
52186;SDS011;38161;53.020;6.598;2023-02-15T01:53:38;26.65;;;16.52;;
52186;SDS011;38161;53.020;6.598;2023-02-15T01:56:15;25.13;;;15.53;;
52186;SDS011;38161;53.020;6.598;2023-02-15T01:58:44;23.57;;;15.33;;
52186;SDS011;38161;53.020;6.598;2023-02-15T02:01:12;22.40;;;14.07;;
52186;SDS011;38161;53.020;6.598;2023-02-15T02:04:00;24.15;;;15.38;;
52186;SDS011;38161;53.020;6.598;2023-02-15T02:06:44;25.70;;;15.63;;
52186;SDS011;38161;53.020;6.598;2023-02-15T02:09:13;25.40;;;15.90;;
52186;SDS011;38161;53.020;6.598;2023-02-15T02:11:39;27.02;;;17.42;;
52186;SDS011;38161;53.020;6.598;2023-02-15T02:14:06;60.93;;;20.63;;
52186;SDS011;38161;53.020;6.598;2023-02-15T02:27:49;140.43;;;28.70;;
52186;SDS011;38161;53.020;6.598;2023-02-15T02:30:37;68.50;;;27.53;;
52186;SDS011;38161;53.020;6.598;2023-02-15T02:38:46;43.17;;;24.80;;
52186;SDS011;38161;53.020;6.598;2023-02-15T02:46:58;47.43;;;24.10;;
52186;SDS011;38161;53.020;6.598;2023-02-15T02:52:06;41.03;;;22.53;;
52186;SDS011;38161;53.020;6.598;2023-02-15T02:54:52;49.03;;;24.40;;
52186;SDS011;38161;53.020;6.598;2023-02-15T02:57:20;44.03;;;23.73;;
52186;SDS011;38161;53.020;6.598;2023-02-15T02:59:48;52.67;;;25.30;;
52186;SDS011;38161;53.020;6.598;2023-02-15T03:04:48;56.30;;;28.87;;
52186;SDS011;38161;53.020;6.598;2023-02-15T03:07:23;51.67;;;27.58;;
52186;SDS011;38161;53.020;6.598;2023-02-15T03:09:54;47.27;;;26.10;;
52186;SDS011;38161;53.020;6.598;2023-02-15T03:17:47;48.87;;;23.90;;
52186;SDS011;38161;53.020;6.598;2023-02-15T03:20:29;41.30;;;23.17;;
52186;SDS011;38161;53.020;6.598;2023-02-15T03:23:10;103.53;;;24.53;;
52186;SDS011;38161;53.020;6.598;2023-02-15T03:25:46;72.33;;;26.47;;
52186;SDS011;38161;53.020;6.598;2023-02-15T03:28:22;45.17;;;25.20;;
52186;SDS011;38161;53.020;6.598;2023-02-15T03:31:09;47.80;;;25.37;;
52186;SDS011;38161;53.020;6.598;2023-02-15T03:33:36;42.97;;;24.37;;
52186;SDS011;38161;53.020;6.598;2023-02-15T03:36:09;62.73;;;26.23;;
52186;SDS011;38161;53.020;6.598;2023-02-15T03:39:02;50.87;;;26.33;;
52186;SDS011;38161;53.020;6.598;2023-02-15T03:41:32;42.50;;;24.37;;
52186;SDS011;38161;53.020;6.598;2023-02-15T03:44:06;44.93;;;23.30;;
52186;SDS011;38161;53.020;6.598;2023-02-15T03:49:23;45.03;;;23.90;;
52186;SDS011;38161;53.020;6.598;2023-02-15T03:51:54;46.17;;;24.50;;
52186;SDS011;38161;53.020;6.598;2023-02-15T03:54:27;84.03;;;28.10;;
52186;SDS011;38161;53.020;6.598;2023-02-15T03:57:20;83.37;;;30.27;;
52186;SDS011;38161;53.020;6.598;2023-02-15T04:00:08;310.00;;;37.27;;
52186;SDS011;38161;53.020;6.598;2023-02-15T04:05:37;266.93;;;36.83;;
52186;SDS011;38161;53.020;6.598;2023-02-15T04:10:29;224.67;;;38.27;;
52186;SDS011;38161;53.020;6.598;2023-02-15T04:13:19;170.80;;;35.47;;
52186;SDS011;38161;53.020;6.598;2023-02-15T04:15:45;87.37;;;33.87;;
52186;SDS011;38161;53.020;6.598;2023-02-15T04:18:30;65.00;;;30.60;;
52186;SDS011;38161;53.020;6.598;2023-02-15T04:21:17;58.57;;;28.83;;
52186;SDS011;38161;53.020;6.598;2023-02-15T04:24:03;49.47;;;27.27;;
52186;SDS011;38161;53.020;6.598;2023-02-15T04:26:47;57.37;;;27.40;;
52186;SDS011;38161;53.020;6.598;2023-02-15T04:29:14;53.17;;;27.37;;
52186;SDS011;38161;53.020;6.598;2023-02-15T04:31:40;55.33;;;28.40;;
52186;SDS011;38161;53.020;6.598;2023-02-15T04:34:08;54.63;;;29.10;;
52186;SDS011;38161;53.020;6.598;2023-02-15T04:36:34;63.07;;;30.60;;
52186;SDS011;38161;53.020;6.598;2023-02-15T04:39:00;65.87;;;32.47;;
52186;SDS011;38161;53.020;6.598;2023-02-15T04:41:26;65.90;;;33.03;;
52186;SDS011;38161;53.020;6.598;2023-02-15T04:43:51;80.03;;;31.07;;
52186;SDS011;38161;53.020;6.598;2023-02-15T04:46:17;434.60;;;51.37;;
52186;SDS011;38161;53.020;6.598;2023-02-15T04:48:43;79.20;;;32.97;;
52186;SDS011;38161;53.020;6.598;2023-02-15T04:51:09;91.70;;;33.03;;
52186;SDS011;38161;53.020;6.598;2023-02-15T04:53:34;63.95;;;31.88;;
52186;SDS011;38161;53.020;6.598;2023-02-15T04:56:01;67.88;;;33.63;;
52186;SDS011;38161;53.020;6.598;2023-02-15T04:58:27;61.58;;;31.42;;
52186;SDS011;38161;53.020;6.598;2023-02-15T05:00:56;56.83;;;30.30;;
52186;SDS011;38161;53.020;6.598;2023-02-15T05:03:22;65.30;;;32.53;;
52186;SDS011;38161;53.020;6.598;2023-02-15T05:05:48;59.88;;;30.58;;
52186;SDS011;38161;53.020;6.598;2023-02-15T05:08:14;62.50;;;31.13;;
52186;SDS011;38161;53.020;6.598;2023-02-15T05:10:39;73.78;;;33.30;;
52186;SDS011;38161;53.020;6.598;2023-02-15T05:13:05;184.53;;;35.17;;
52186;SDS011;38161;53.020;6.598;2023-02-15T05:15:31;282.80;;;37.87;;
52186;SDS011;38161;53.020;6.598;2023-02-15T05:17:57;154.57;;;36.47;;
52186;SDS011;38161;53.020;6.598;2023-02-15T05:20:22;113.93;;;35.27;;
52186;SDS011;38161;53.020;6.598;2023-02-15T05:22:48;95.30;;;35.73;;
52186;SDS011;38161;53.020;6.598;2023-02-15T05:25:17;103.50;;;37.83;;
52186;SDS011;38161;53.020;6.598;2023-02-15T05:28:02;95.10;;;37.03;;
52186;SDS011;38161;53.020;6.598;2023-02-15T05:30:50;75.50;;;32.90;;
52186;SDS011;38161;53.020;6.598;2023-02-15T05:33:31;89.30;;;37.30;;
52186;SDS011;38161;53.020;6.598;2023-02-15T05:35:58;67.43;;;35.10;;
52186;SDS011;38161;53.020;6.598;2023-02-15T05:38:24;72.18;;;36.97;;
52186;SDS011;38161;53.020;6.598;2023-02-15T05:40:50;69.50;;;34.77;;
52186;SDS011;38161;53.020;6.598;2023-02-15T05:43:16;75.57;;;39.93;;
52186;SDS011;38161;53.020;6.598;2023-02-15T05:45:49;70.83;;;35.13;;
52186;SDS011;38161;53.020;6.598;2023-02-15T05:48:17;81.70;;;39.13;;
52186;SDS011;38161;53.020;6.598;2023-02-15T05:50:43;91.20;;;40.67;;
52186;SDS011;38161;53.020;6.598;2023-02-15T05:53:09;87.82;;;37.72;;
52186;SDS011;38161;53.020;6.598;2023-02-15T05:55:41;79.25;;;38.20;;
52186;SDS011;38161;53.020;6.598;2023-02-15T05:58:07;94.23;;;38.80;;
52186;SDS011;38161;53.020;6.598;2023-02-15T06:00:33;68.93;;;34.30;;
52186;SDS011;38161;53.020;6.598;2023-02-15T06:05:25;64.27;;;33.37;;
52186;SDS011;38161;53.020;6.598;2023-02-15T06:07:51;59.73;;;33.33;;
52186;SDS011;38161;53.020;6.598;2023-02-15T06:10:16;55.73;;;32.00;;
52186;SDS011;38161;53.020;6.598;2023-02-15T06:12:43;56.63;;;30.93;;
52186;SDS011;38161;53.020;6.598;2023-02-15T06:15:10;62.90;;;34.97;;
52186;SDS011;38161;53.020;6.598;2023-02-15T06:17:35;52.78;;;31.33;;
52186;SDS011;38161;53.020;6.598;2023-02-15T06:20:02;50.40;;;30.90;;
52186;SDS011;38161;53.020;6.598;2023-02-15T06:22:28;54.60;;;32.17;;
52186;SDS011;38161;53.020;6.598;2023-02-15T06:24:54;53.70;;;32.63;;
52186;SDS011;38161;53.020;6.598;2023-02-15T06:27:19;50.97;;;30.80;;
52186;SDS011;38161;53.020;6.598;2023-02-15T06:29:45;56.80;;;32.90;;
52186;SDS011;38161;53.020;6.598;2023-02-15T06:32:11;55.77;;;31.27;;
52186;SDS011;38161;53.020;6.598;2023-02-15T06:34:36;56.83;;;32.67;;
52186;SDS011;38161;53.020;6.598;2023-02-15T06:37:02;52.30;;;29.50;;
52186;SDS011;38161;53.020;6.598;2023-02-15T06:39:28;51.03;;;30.87;;
52186;SDS011;38161;53.020;6.598;2023-02-15T06:41:54;55.63;;;31.23;;
52186;SDS011;38161;53.020;6.598;2023-02-15T06:44:19;52.10;;;29.70;;
52186;SDS011;38161;53.020;6.598;2023-02-15T06:46:45;57.57;;;34.20;;
52186;SDS011;38161;53.020;6.598;2023-02-15T06:49:11;56.73;;;30.33;;
52186;SDS011;38161;53.020;6.598;2023-02-15T06:51:36;49.93;;;29.77;;
52186;SDS011;38161;53.020;6.598;2023-02-15T06:54:02;51.40;;;30.37;;
52186;SDS011;38161;53.020;6.598;2023-02-15T06:56:28;50.40;;;28.40;;
52186;SDS011;38161;53.020;6.598;2023-02-15T07:01:20;49.83;;;27.37;;
52186;SDS011;38161;53.020;6.598;2023-02-15T07:03:46;51.47;;;28.43;;
52186;SDS011;38161;53.020;6.598;2023-02-15T07:06:11;47.60;;;27.73;;
52186;SDS011;38161;53.020;6.598;2023-02-15T07:08:38;44.03;;;27.40;;
52186;SDS011;38161;53.020;6.598;2023-02-15T07:11:04;50.15;;;28.15;;
52186;SDS011;38161;53.020;6.598;2023-02-15T07:14:00;47.03;;;28.83;;
52186;SDS011;38161;53.020;6.598;2023-02-15T07:16:25;48.67;;;30.03;;
52186;SDS011;38161;53.020;6.598;2023-02-15T07:18:51;45.67;;;28.37;;
52186;SDS011;38161;53.020;6.598;2023-02-15T07:21:17;51.40;;;30.63;;
52186;SDS011;38161;53.020;6.598;2023-02-15T07:23:42;57.27;;;31.37;;
52186;SDS011;38161;53.020;6.598;2023-02-15T07:26:08;53.57;;;30.40;;
52186;SDS011;38161;53.020;6.598;2023-02-15T07:28:34;56.57;;;32.37;;
52186;SDS011;38161;53.020;6.598;2023-02-15T07:31:03;51.75;;;30.63;;
52186;SDS011;38161;53.020;6.598;2023-02-15T07:33:30;56.33;;;32.87;;
52186;SDS011;38161;53.020;6.598;2023-02-15T07:38:24;51.90;;;29.90;;
52186;SDS011;38161;53.020;6.598;2023-02-15T07:40:51;53.50;;;29.90;;
52186;SDS011;38161;53.020;6.598;2023-02-15T07:43:17;49.72;;;28.95;;
52186;SDS011;38161;53.020;6.598;2023-02-15T07:45:43;51.93;;;30.60;;
52186;SDS011;38161;53.020;6.598;2023-02-15T07:48:08;57.25;;;32.63;;
52186;SDS011;38161;53.020;6.598;2023-02-15T07:50:34;55.13;;;32.13;;
52186;SDS011;38161;53.020;6.598;2023-02-15T07:53:03;56.92;;;31.85;;
52186;SDS011;38161;53.020;6.598;2023-02-15T07:55:29;58.60;;;31.70;;
52186;SDS011;38161;53.020;6.598;2023-02-15T07:57:55;55.28;;;31.80;;
52186;SDS011;38161;53.020;6.598;2023-02-15T08:00:21;54.53;;;32.67;;
52186;SDS011;38161;53.020;6.598;2023-02-15T08:02:53;50.57;;;30.87;;
52186;SDS011;38161;53.020;6.598;2023-02-15T08:05:39;59.90;;;32.73;;
52186;SDS011;38161;53.020;6.598;2023-02-15T08:08:06;53.67;;;31.37;;
52186;SDS011;38161;53.020;6.598;2023-02-15T08:10:33;59.63;;;33.03;;
52186;SDS011;38161;53.020;6.598;2023-02-15T08:13:18;55.40;;;31.73;;
52186;SDS011;38161;53.020;6.598;2023-02-15T08:15:50;65.87;;;34.73;;
52186;SDS011;38161;53.020;6.598;2023-02-15T08:18:16;57.07;;;33.27;;
52186;SDS011;38161;53.020;6.598;2023-02-15T08:20:42;55.92;;;32.20;;
52186;SDS011;38161;53.020;6.598;2023-02-15T08:23:13;62.97;;;33.33;;
52186;SDS011;38161;53.020;6.598;2023-02-15T08:25:39;68.82;;;37.95;;
52186;SDS011;38161;53.020;6.598;2023-02-15T08:28:05;63.60;;;34.13;;
52186;SDS011;38161;53.020;6.598;2023-02-15T08:30:30;64.43;;;34.83;;
52186;SDS011;38161;53.020;6.598;2023-02-15T08:32:56;63.23;;;35.07;;
52186;SDS011;38161;53.020;6.598;2023-02-15T08:35:22;68.40;;;35.73;;
52186;SDS011;38161;53.020;6.598;2023-02-15T08:37:48;69.20;;;36.50;;
52186;SDS011;38161;53.020;6.598;2023-02-15T08:40:13;67.83;;;36.03;;
52186;SDS011;38161;53.020;6.598;2023-02-15T08:42:39;67.45;;;36.08;;
52186;SDS011;38161;53.020;6.598;2023-02-15T08:45:05;71.28;;;36.92;;
52186;SDS011;38161;53.020;6.598;2023-02-15T08:47:32;69.25;;;36.25;;
52186;SDS011;38161;53.020;6.598;2023-02-15T08:49:57;69.50;;;37.33;;
52186;SDS011;38161;53.020;6.598;2023-02-15T08:52:23;62.90;;;34.93;;
52186;SDS011;38161;53.020;6.598;2023-02-15T08:54:49;68.37;;;34.80;;
52186;SDS011;38161;53.020;6.598;2023-02-15T08:57:14;66.77;;;36.67;;
52186;SDS011;38161;53.020;6.598;2023-02-15T08:59:40;65.30;;;35.97;;
52186;SDS011;38161;53.020;6.598;2023-02-15T09:02:06;76.47;;;36.40;;
52186;SDS011;38161;53.020;6.598;2023-02-15T09:04:34;65.83;;;36.23;;
52186;SDS011;38161;53.020;6.598;2023-02-15T09:07:00;72.38;;;37.60;;
52186;SDS011;38161;53.020;6.598;2023-02-15T09:09:27;67.97;;;35.47;;
52186;SDS011;38161;53.020;6.598;2023-02-15T09:11:53;69.63;;;36.60;;
52186;SDS011;38161;53.020;6.598;2023-02-15T09:14:19;65.88;;;35.97;;
52186;SDS011;38161;53.020;6.598;2023-02-15T09:16:47;65.97;;;36.17;;
52186;SDS011;38161;53.020;6.598;2023-02-15T09:19:17;66.20;;;36.77;;
52186;SDS011;38161;53.020;6.598;2023-02-15T09:21:43;74.23;;;38.27;;
52186;SDS011;38161;53.020;6.598;2023-02-15T09:24:10;73.70;;;38.60;;
52186;SDS011;38161;53.020;6.598;2023-02-15T09:26:39;69.60;;;38.97;;
52186;SDS011;38161;53.020;6.598;2023-02-15T09:29:06;72.93;;;38.60;;
52186;SDS011;38161;53.020;6.598;2023-02-15T09:31:37;69.50;;;39.03;;
52186;SDS011;38161;53.020;6.598;2023-02-15T09:34:09;75.97;;;39.53;;
52186;SDS011;38161;53.020;6.598;2023-02-15T09:36:36;73.25;;;38.85;;
52186;SDS011;38161;53.020;6.598;2023-02-15T09:39:06;68.30;;;37.00;;
52186;SDS011;38161;53.020;6.598;2023-02-15T09:50:26;78.40;;;40.70;;
52186;SDS011;38161;53.020;6.598;2023-02-15T09:58:46;66.28;;;37.20;;
52186;SDS011;38161;53.020;6.598;2023-02-15T10:12:53;60.00;;;36.08;;
52186;SDS011;38161;53.020;6.598;2023-02-15T10:25:54;50.72;;;32.88;;
52186;SDS011;38161;53.020;6.598;2023-02-15T10:28:42;52.45;;;32.22;;
52186;SDS011;38161;53.020;6.598;2023-02-15T10:32:05;48.45;;;31.23;;
52186;SDS011;38161;53.020;6.598;2023-02-15T10:50:54;57.03;;;32.83;;
52186;SDS011;38161;53.020;6.598;2023-02-15T11:01:20;53.08;;;31.95;;
52186;SDS011;38161;53.020;6.598;2023-02-15T11:06:51;48.78;;;30.83;;
52186;SDS011;38161;53.020;6.598;2023-02-15T11:09:22;51.38;;;32.63;;
52186;SDS011;38161;53.020;6.598;2023-02-15T11:11:52;54.50;;;32.88;;
52186;SDS011;38161;53.020;6.598;2023-02-15T11:16:57;49.40;;;30.70;;
52186;SDS011;38161;53.020;6.598;2023-02-15T11:19:31;50.50;;;32.58;;
52186;SDS011;38161;53.020;6.598;2023-02-15T11:22:04;51.13;;;31.80;;
52186;SDS011;38161;53.020;6.598;2023-02-15T11:24:32;50.22;;;32.40;;
52186;SDS011;38161;53.020;6.598;2023-02-15T11:27:05;52.08;;;32.17;;
52186;SDS011;38161;53.020;6.598;2023-02-15T11:29:41;48.55;;;31.08;;
52186;SDS011;38161;53.020;6.598;2023-02-15T11:32:23;46.05;;;30.20;;
52186;SDS011;38161;53.020;6.598;2023-02-15T11:34:56;55.22;;;31.98;;
52186;SDS011;38161;53.020;6.598;2023-02-15T11:38:12;50.10;;;31.55;;
52186;SDS011;38161;53.020;6.598;2023-02-15T11:40:25;50.85;;;30.73;;
52186;SDS011;38161;53.020;6.598;2023-02-15T11:43:03;49.13;;;31.48;;
52186;SDS011;38161;53.020;6.598;2023-02-15T11:45:36;49.15;;;31.92;;
52186;SDS011;38161;53.020;6.598;2023-02-15T11:48:11;54.75;;;32.88;;
52186;SDS011;38161;53.020;6.598;2023-02-15T11:50:38;49.72;;;31.63;;
52186;SDS011;38161;53.020;6.598;2023-02-15T11:55:35;54.65;;;31.23;;
52186;SDS011;38161;53.020;6.598;2023-02-15T11:58:03;52.33;;;33.05;;
52186;SDS011;38161;53.020;6.598;2023-02-15T12:03:43;48.38;;;32.03;;
52186;SDS011;38161;53.020;6.598;2023-02-15T12:06:29;53.35;;;33.15;;
52186;SDS011;38161;53.020;6.598;2023-02-15T12:11:42;53.50;;;33.08;;
52186;SDS011;38161;53.020;6.598;2023-02-15T12:14:09;55.08;;;35.58;;
52186;SDS011;38161;53.020;6.598;2023-02-15T12:22:05;54.70;;;34.05;;
52186;SDS011;38161;53.020;6.598;2023-02-15T12:24:45;54.03;;;34.65;;
52186;SDS011;38161;53.020;6.598;2023-02-15T12:29:44;55.05;;;35.47;;
52186;SDS011;38161;53.020;6.598;2023-02-15T12:32:17;55.38;;;34.95;;
52186;SDS011;38161;53.020;6.598;2023-02-15T12:34:47;56.53;;;35.17;;
52186;SDS011;38161;53.020;6.598;2023-02-15T12:37:23;53.55;;;34.10;;
52186;SDS011;38161;53.020;6.598;2023-02-15T12:39:56;53.55;;;34.60;;
52186;SDS011;38161;53.020;6.598;2023-02-15T12:42:23;55.33;;;34.28;;
52186;SDS011;38161;53.020;6.598;2023-02-15T12:47:27;55.78;;;34.70;;
52186;SDS011;38161;53.020;6.598;2023-02-15T12:50:05;51.90;;;34.35;;
52186;SDS011;38161;53.020;6.598;2023-02-15T12:52:48;60.22;;;35.05;;
52186;SDS011;38161;53.020;6.598;2023-02-15T13:00:43;49.65;;;32.80;;
52186;SDS011;38161;53.020;6.598;2023-02-15T13:03:22;54.15;;;33.08;;
52186;SDS011;38161;53.020;6.598;2023-02-15T13:05:52;57.55;;;35.03;;
52186;SDS011;38161;53.020;6.598;2023-02-15T13:08:21;52.45;;;32.58;;
52186;SDS011;38161;53.020;6.598;2023-02-15T13:13:55;53.00;;;31.85;;
52186;SDS011;38161;53.020;6.598;2023-02-15T13:16:34;53.00;;;30.98;;
52186;SDS011;38161;53.020;6.598;2023-02-15T13:19:06;50.50;;;31.35;;
52186;SDS011;38161;53.020;6.598;2023-02-15T13:21:41;52.15;;;31.77;;
52186;SDS011;38161;53.020;6.598;2023-02-15T13:24:24;49.28;;;30.52;;
52186;SDS011;38161;53.020;6.598;2023-02-15T13:27:00;50.58;;;29.95;;
52186;SDS011;38161;53.020;6.598;2023-02-15T13:29:27;48.08;;;30.75;;
52186;SDS011;38161;53.020;6.598;2023-02-15T13:31:57;46.58;;;29.60;;
52186;SDS011;38161;53.020;6.598;2023-02-15T13:34:28;50.83;;;30.80;;
52186;SDS011;38161;53.020;6.598;2023-02-15T13:39:46;48.13;;;29.27;;
52186;SDS011;38161;53.020;6.598;2023-02-15T13:42:46;49.20;;;29.40;;
52186;SDS011;38161;53.020;6.598;2023-02-15T13:48:25;48.97;;;30.02;;
52186;SDS011;38161;53.020;6.598;2023-02-15T14:03:10;49.58;;;30.65;;
52186;SDS011;38161;53.020;6.598;2023-02-15T14:11:29;49.13;;;28.98;;
52186;SDS011;38161;53.020;6.598;2023-02-15T14:20:17;47.30;;;28.90;;
52186;SDS011;38161;53.020;6.598;2023-02-15T14:22:46;47.45;;;28.67;;
52186;SDS011;38161;53.020;6.598;2023-02-15T14:25:33;45.42;;;28.50;;
52186;SDS011;38161;53.020;6.598;2023-02-15T14:28:17;44.55;;;27.85;;
52186;SDS011;38161;53.020;6.598;2023-02-15T14:30:53;46.92;;;28.58;;
52186;SDS011;38161;53.020;6.598;2023-02-15T14:35:45;44.93;;;28.20;;
52186;SDS011;38161;53.020;6.598;2023-02-15T14:41:30;47.03;;;29.20;;
52186;SDS011;38161;53.020;6.598;2023-02-15T14:44:17;47.20;;;29.40;;
52186;SDS011;38161;53.020;6.598;2023-02-15T14:49:31;44.78;;;29.15;;
52186;SDS011;38161;53.020;6.598;2023-02-15T14:52:02;47.92;;;29.17;;
52186;SDS011;38161;53.020;6.598;2023-02-15T14:59:26;45.80;;;28.08;;
52186;SDS011;38161;53.020;6.598;2023-02-15T15:02:25;50.30;;;29.33;;
52186;SDS011;38161;53.020;6.598;2023-02-15T15:07:23;45.13;;;28.73;;
52186;SDS011;38161;53.020;6.598;2023-02-15T15:09:59;45.08;;;28.80;;
52186;SDS011;38161;53.020;6.598;2023-02-15T15:31:26;45.80;;;29.10;;
52186;SDS011;38161;53.020;6.598;2023-02-15T15:42:48;50.38;;;30.42;;
52186;SDS011;38161;53.020;6.598;2023-02-15T15:48:37;51.63;;;31.15;;
52186;SDS011;38161;53.020;6.598;2023-02-15T15:51:21;51.28;;;31.65;;
52186;SDS011;38161;53.020;6.598;2023-02-15T15:54:04;47.72;;;29.83;;
52186;SDS011;38161;53.020;6.598;2023-02-15T15:56:33;47.13;;;30.77;;
52186;SDS011;38161;53.020;6.598;2023-02-15T15:59:07;45.70;;;29.23;;
52186;SDS011;38161;53.020;6.598;2023-02-15T16:01:50;44.58;;;27.98;;
52186;SDS011;38161;53.020;6.598;2023-02-15T16:04:26;46.28;;;28.58;;
52186;SDS011;38161;53.020;6.598;2023-02-15T16:06:55;45.15;;;28.02;;
52186;SDS011;38161;53.020;6.598;2023-02-15T16:09:23;47.20;;;27.83;;
52186;SDS011;38161;53.020;6.598;2023-02-15T16:11:52;41.17;;;26.92;;
52186;SDS011;38161;53.020;6.598;2023-02-15T16:16:56;44.60;;;29.45;;
52186;SDS011;38161;53.020;6.598;2023-02-15T16:19:32;41.92;;;27.13;;
52186;SDS011;38161;53.020;6.598;2023-02-15T16:22:02;45.92;;;27.80;;
52186;SDS011;38161;53.020;6.598;2023-02-15T16:27:35;45.35;;;27.63;;
52186;SDS011;38161;53.020;6.598;2023-02-15T16:30:19;44.13;;;27.38;;
52186;SDS011;38161;53.020;6.598;2023-02-15T16:32:54;44.67;;;28.50;;
52186;SDS011;38161;53.020;6.598;2023-02-15T16:35:29;42.67;;;26.77;;
52186;SDS011;38161;53.020;6.598;2023-02-15T16:37:55;41.90;;;26.35;;
52186;SDS011;38161;53.020;6.598;2023-02-15T16:43:13;45.03;;;27.50;;
52186;SDS011;38161;53.020;6.598;2023-02-15T16:45:41;44.42;;;26.70;;
52186;SDS011;38161;53.020;6.598;2023-02-15T16:48:28;40.80;;;27.08;;
52186;SDS011;38161;53.020;6.598;2023-02-15T16:50:54;42.53;;;27.48;;
52186;SDS011;38161;53.020;6.598;2023-02-15T16:53:28;50.58;;;28.98;;
52186;SDS011;38161;53.020;6.598;2023-02-15T16:55:55;44.58;;;30.05;;
52186;SDS011;38161;53.020;6.598;2023-02-15T16:58:42;45.33;;;28.85;;
52186;SDS011;38161;53.020;6.598;2023-02-15T17:01:11;43.25;;;28.50;;
52186;SDS011;38161;53.020;6.598;2023-02-15T17:03:40;49.03;;;29.65;;
52186;SDS011;38161;53.020;6.598;2023-02-15T17:06:25;46.63;;;28.77;;
52186;SDS011;38161;53.020;6.598;2023-02-15T17:09:03;46.78;;;29.13;;
52186;SDS011;38161;53.020;6.598;2023-02-15T17:11:43;44.80;;;26.90;;
52186;SDS011;38161;53.020;6.598;2023-02-15T17:14:10;45.28;;;28.52;;
52186;SDS011;38161;53.020;6.598;2023-02-15T17:16:46;45.30;;;28.33;;
52186;SDS011;38161;53.020;6.598;2023-02-15T17:19:19;45.90;;;27.63;;
52186;SDS011;38161;53.020;6.598;2023-02-15T17:21:48;44.50;;;26.80;;
52186;SDS011;38161;53.020;6.598;2023-02-15T17:24:17;47.25;;;28.45;;
52186;SDS011;38161;53.020;6.598;2023-02-15T17:37:13;43.67;;;27.15;;
52186;SDS011;38161;53.020;6.598;2023-02-15T17:39:48;47.60;;;27.27;;
52186;SDS011;38161;53.020;6.598;2023-02-15T17:42:14;43.90;;;27.30;;
52186;SDS011;38161;53.020;6.598;2023-02-15T17:44:40;46.73;;;28.53;;
52186;SDS011;38161;53.020;6.598;2023-02-15T17:47:05;49.63;;;28.60;;
52186;SDS011;38161;53.020;6.598;2023-02-15T17:49:31;51.77;;;29.80;;
52186;SDS011;38161;53.020;6.598;2023-02-15T17:52:00;46.78;;;27.88;;
52186;SDS011;38161;53.020;6.598;2023-02-15T17:54:27;47.78;;;29.55;;
52186;SDS011;38161;53.020;6.598;2023-02-15T17:57:12;50.17;;;30.15;;
52186;SDS011;38161;53.020;6.598;2023-02-15T17:59:39;56.20;;;36.00;;
52186;SDS011;38161;53.020;6.598;2023-02-15T18:02:24;56.78;;;35.05;;
52186;SDS011;38161;53.020;6.598;2023-02-15T18:05:12;48.80;;;31.75;;
52186;SDS011;38161;53.020;6.598;2023-02-15T18:07:57;49.90;;;28.88;;
52186;SDS011;38161;53.020;6.598;2023-02-15T18:10:41;48.33;;;29.48;;
52186;SDS011;38161;53.020;6.598;2023-02-15T18:13:26;46.28;;;28.30;;
52186;SDS011;38161;53.020;6.598;2023-02-15T18:15:51;49.43;;;29.67;;
52186;SDS011;38161;53.020;6.598;2023-02-15T18:18:17;56.57;;;31.00;;
52186;SDS011;38161;53.020;6.598;2023-02-15T18:20:43;52.00;;;30.50;;
52186;SDS011;38161;53.020;6.598;2023-02-15T18:23:13;51.20;;;30.30;;
52186;SDS011;38161;53.020;6.598;2023-02-15T18:25:39;51.03;;;30.38;;
52186;SDS011;38161;53.020;6.598;2023-02-15T18:28:04;50.17;;;30.60;;
52186;SDS011;38161;53.020;6.598;2023-02-15T18:30:30;56.00;;;31.77;;
52186;SDS011;38161;53.020;6.598;2023-02-15T18:32:57;52.63;;;31.60;;
52186;SDS011;38161;53.020;6.598;2023-02-15T18:35:27;50.03;;;30.20;;
52186;SDS011;38161;53.020;6.598;2023-02-15T18:37:57;52.67;;;30.75;;
52186;SDS011;38161;53.020;6.598;2023-02-15T18:42:50;50.88;;;30.45;;
52186;SDS011;38161;53.020;6.598;2023-02-15T18:47:49;58.78;;;32.95;;
52186;SDS011;38161;53.020;6.598;2023-02-15T18:50:15;59.13;;;33.08;;
52186;SDS011;38161;53.020;6.598;2023-02-15T18:52:44;53.55;;;33.15;;